sensor_id;sensor_type;location;lat;lon;timestamp;temperature;humidity
49373;DHT22;44113;38.408;-122.974;2022-11-15T00:01:14;29.00;38.40
49373;DHT22;44113;38.408;-122.974;2022-11-15T00:03:42;29.00;38.30
49373;DHT22;44113;38.408;-122.974;2022-11-15T00:06:09;29.00;38.20
49373;DHT22;44113;38.408;-122.974;2022-11-15T00:08:36;29.00;38.10
49373;DHT22;44113;38.408;-122.974;2022-11-15T00:11:03;29.00;38.10
49373;DHT22;44113;38.408;-122.974;2022-11-15T00:13:30;29.00;38.10
49373;DHT22;44113;38.408;-122.974;2022-11-15T00:16:01;29.10;38.20
49373;DHT22;44113;38.408;-122.974;2022-11-15T00:18:28;29.10;38.10
49373;DHT22;44113;38.408;-122.974;2022-11-15T00:20:56;29.10;38.10
49373;DHT22;44113;38.408;-122.974;2022-11-15T00:23:22;29.10;38.10
49373;DHT22;44113;38.408;-122.974;2022-11-15T00:25:56;29.10;38.20
49373;DHT22;44113;38.408;-122.974;2022-11-15T00:28:23;29.00;38.10
49373;DHT22;44113;38.408;-122.974;2022-11-15T00:30:51;29.00;38.10
49373;DHT22;44113;38.408;-122.974;2022-11-15T00:33:18;29.10;38.30
49373;DHT22;44113;38.408;-122.974;2022-11-15T00:35:44;29.00;38.20
49373;DHT22;44113;38.408;-122.974;2022-11-15T00:38:11;29.00;38.20
49373;DHT22;44113;38.408;-122.974;2022-11-15T00:40:37;29.00;38.30
49373;DHT22;44113;38.408;-122.974;2022-11-15T00:43:03;29.00;38.30
49373;DHT22;44113;38.408;-122.974;2022-11-15T00:45:30;29.00;38.30
49373;DHT22;44113;38.408;-122.974;2022-11-15T00:47:56;28.90;38.20
49373;DHT22;44113;38.408;-122.974;2022-11-15T00:50:23;28.90;38.20
49373;DHT22;44113;38.408;-122.974;2022-11-15T00:52:49;28.90;38.90
49373;DHT22;44113;38.408;-122.974;2022-11-15T00:55:16;28.80;38.30
49373;DHT22;44113;38.408;-122.974;2022-11-15T00:57:43;28.70;38.30
49373;DHT22;44113;38.408;-122.974;2022-11-15T01:00:10;28.70;38.40
49373;DHT22;44113;38.408;-122.974;2022-11-15T01:02:37;28.60;38.40
49373;DHT22;44113;38.408;-122.974;2022-11-15T01:05:04;28.60;38.50
49373;DHT22;44113;38.408;-122.974;2022-11-15T01:07:30;28.60;38.70
49373;DHT22;44113;38.408;-122.974;2022-11-15T01:09:57;28.50;38.60
49373;DHT22;44113;38.408;-122.974;2022-11-15T01:12:23;28.50;38.60
49373;DHT22;44113;38.408;-122.974;2022-11-15T01:14:49;28.40;38.50
49373;DHT22;44113;38.408;-122.974;2022-11-15T01:17:16;28.30;39.30
49373;DHT22;44113;38.408;-122.974;2022-11-15T01:19:43;28.30;38.70
49373;DHT22;44113;38.408;-122.974;2022-11-15T01:22:10;28.20;38.70
49373;DHT22;44113;38.408;-122.974;2022-11-15T01:24:36;28.20;38.90
49373;DHT22;44113;38.408;-122.974;2022-11-15T01:27:04;28.20;38.90
49373;DHT22;44113;38.408;-122.974;2022-11-15T01:29:30;28.10;38.90
49373;DHT22;44113;38.408;-122.974;2022-11-15T01:31:57;28.10;38.90
49373;DHT22;44113;38.408;-122.974;2022-11-15T01:34:23;28.00;39.00
49373;DHT22;44113;38.408;-122.974;2022-11-15T01:36:49;28.00;39.10
49373;DHT22;44113;38.408;-122.974;2022-11-15T01:39:16;27.90;39.10
49373;DHT22;44113;38.408;-122.974;2022-11-15T01:41:42;27.90;39.20
49373;DHT22;44113;38.408;-122.974;2022-11-15T01:44:36;27.80;39.30
49373;DHT22;44113;38.408;-122.974;2022-11-15T01:47:24;27.80;39.40
49373;DHT22;44113;38.408;-122.974;2022-11-15T01:50:07;27.70;39.40
49373;DHT22;44113;38.408;-122.974;2022-11-15T01:52:34;27.60;39.40
49373;DHT22;44113;38.408;-122.974;2022-11-15T01:57:53;27.50;39.60
49373;DHT22;44113;38.408;-122.974;2022-11-15T02:00:20;27.40;39.40
49373;DHT22;44113;38.408;-122.974;2022-11-15T02:02:47;27.40;39.70
49373;DHT22;44113;38.408;-122.974;2022-11-15T02:05:14;27.40;39.50
49373;DHT22;44113;38.408;-122.974;2022-11-15T02:07:41;27.30;39.70
49373;DHT22;44113;38.408;-122.974;2022-11-15T02:10:17;27.30;39.70
49373;DHT22;44113;38.408;-122.974;2022-11-15T02:12:45;27.20;39.80
49373;DHT22;44113;38.408;-122.974;2022-11-15T02:15:12;27.20;39.90
49373;DHT22;44113;38.408;-122.974;2022-11-15T02:21:35;27.10;39.90
49373;DHT22;44113;38.408;-122.974;2022-11-15T02:31:32;26.90;40.10
49373;DHT22;44113;38.408;-122.974;2022-11-15T02:39:51;26.80;40.40
49373;DHT22;44113;38.408;-122.974;2022-11-15T02:42:33;26.80;40.40
49373;DHT22;44113;38.408;-122.974;2022-11-15T02:45:32;26.70;40.40
49373;DHT22;44113;38.408;-122.974;2022-11-15T02:48:02;26.70;40.50
49373;DHT22;44113;38.408;-122.974;2022-11-15T02:50:32;26.70;40.50
49373;DHT22;44113;38.408;-122.974;2022-11-15T02:52:59;26.70;40.40
49373;DHT22;44113;38.408;-122.974;2022-11-15T02:55:32;26.70;40.40
49373;DHT22;44113;38.408;-122.974;2022-11-15T03:04:17;26.60;40.30
49373;DHT22;44113;38.408;-122.974;2022-11-15T03:09:42;26.60;40.30
49373;DHT22;44113;38.408;-122.974;2022-11-15T03:15:11;26.60;40.30
49373;DHT22;44113;38.408;-122.974;2022-11-15T03:18:04;26.60;40.40
49373;DHT22;44113;38.408;-122.974;2022-11-15T03:20:28;26.60;40.30
49373;DHT22;44113;38.408;-122.974;2022-11-15T03:22:58;26.60;40.30
49373;DHT22;44113;38.408;-122.974;2022-11-15T03:25:26;26.60;40.40
49373;DHT22;44113;38.408;-122.974;2022-11-15T03:27:57;26.60;40.30
49373;DHT22;44113;38.408;-122.974;2022-11-15T03:30:25;26.60;40.30
49373;DHT22;44113;38.408;-122.974;2022-11-15T03:32:56;26.60;40.20
49373;DHT22;44113;38.408;-122.974;2022-11-15T03:35:25;26.70;40.30
49373;DHT22;44113;38.408;-122.974;2022-11-15T03:40:50;26.70;40.20
49373;DHT22;44113;38.408;-122.974;2022-11-15T03:46:16;26.70;40.20
49373;DHT22;44113;38.408;-122.974;2022-11-15T03:48:46;26.60;40.10
49373;DHT22;44113;38.408;-122.974;2022-11-15T03:51:15;26.60;40.10
49373;DHT22;44113;38.408;-122.974;2022-11-15T03:53:42;26.60;40.20
49373;DHT22;44113;38.408;-122.974;2022-11-15T03:56:09;26.60;40.10
49373;DHT22;44113;38.408;-122.974;2022-11-15T03:58:36;26.70;40.20
49373;DHT22;44113;38.408;-122.974;2022-11-15T04:01:02;26.60;40.10
49373;DHT22;44113;38.408;-122.974;2022-11-15T04:03:29;26.60;40.10
49373;DHT22;44113;38.408;-122.974;2022-11-15T04:05:56;26.50;40.10
49373;DHT22;44113;38.408;-122.974;2022-11-15T04:08:23;26.60;40.20
49373;DHT22;44113;38.408;-122.974;2022-11-15T04:10:50;26.50;40.10
49373;DHT22;44113;38.408;-122.974;2022-11-15T04:13:16;26.50;40.20
49373;DHT22;44113;38.408;-122.974;2022-11-15T04:15:43;26.50;40.30
49373;DHT22;44113;38.408;-122.974;2022-11-15T04:18:09;26.40;40.20
49373;DHT22;44113;38.408;-122.974;2022-11-15T04:20:37;26.40;40.20
49373;DHT22;44113;38.408;-122.974;2022-11-15T04:23:22;26.40;40.40
49373;DHT22;44113;38.408;-122.974;2022-11-15T04:26:12;26.30;40.30
49373;DHT22;44113;38.408;-122.974;2022-11-15T04:28:40;26.30;40.30
49373;DHT22;44113;38.408;-122.974;2022-11-15T04:31:25;26.20;40.30
49373;DHT22;44113;38.408;-122.974;2022-11-15T04:33:53;26.20;40.50
49373;DHT22;44113;38.408;-122.974;2022-11-15T04:36:21;26.10;40.40
49373;DHT22;44113;38.408;-122.974;2022-11-15T04:39:06;26.10;40.50
49373;DHT22;44113;38.408;-122.974;2022-11-15T04:41:33;26.00;40.50
49373;DHT22;44113;38.408;-122.974;2022-11-15T04:43:59;26.00;40.50
49373;DHT22;44113;38.408;-122.974;2022-11-15T04:46:26;25.90;40.50
49373;DHT22;44113;38.408;-122.974;2022-11-15T04:48:53;25.90;40.70
49373;DHT22;44113;38.408;-122.974;2022-11-15T04:51:21;25.80;40.70
49373;DHT22;44113;38.408;-122.974;2022-11-15T04:53:47;25.80;40.70
49373;DHT22;44113;38.408;-122.974;2022-11-15T04:56:14;25.70;40.70
49373;DHT22;44113;38.408;-122.974;2022-11-15T04:58:40;25.70;40.70
49373;DHT22;44113;38.408;-122.974;2022-11-15T05:01:09;25.60;40.70
49373;DHT22;44113;38.408;-122.974;2022-11-15T05:03:35;25.60;40.90
49373;DHT22;44113;38.408;-122.974;2022-11-15T05:06:20;25.50;40.80
49373;DHT22;44113;38.408;-122.974;2022-11-15T05:08:47;25.50;40.80
49373;DHT22;44113;38.408;-122.974;2022-11-15T05:11:14;25.40;40.90
49373;DHT22;44113;38.408;-122.974;2022-11-15T05:13:40;25.40;41.00
49373;DHT22;44113;38.408;-122.974;2022-11-15T05:16:08;25.30;41.00
49373;DHT22;44113;38.408;-122.974;2022-11-15T05:18:34;25.30;41.00
49373;DHT22;44113;38.408;-122.974;2022-11-15T05:21:10;25.30;41.60
49373;DHT22;44113;38.408;-122.974;2022-11-15T05:23:37;25.20;41.30
49373;DHT22;44113;38.408;-122.974;2022-11-15T05:26:05;25.20;41.10
49373;DHT22;44113;38.408;-122.974;2022-11-15T05:28:33;25.10;41.10
49373;DHT22;44113;38.408;-122.974;2022-11-15T05:31:07;25.10;41.30
49373;DHT22;44113;38.408;-122.974;2022-11-15T05:33:36;25.00;41.10
49373;DHT22;44113;38.408;-122.974;2022-11-15T05:36:15;24.90;41.20
49373;DHT22;44113;38.408;-122.974;2022-11-15T05:38:45;24.90;41.10
49373;DHT22;44113;38.408;-122.974;2022-11-15T05:41:12;24.80;41.10
49373;DHT22;44113;38.408;-122.974;2022-11-15T05:43:41;24.80;40.80
49373;DHT22;44113;38.408;-122.974;2022-11-15T05:46:08;24.70;41.40
49373;DHT22;44113;38.408;-122.974;2022-11-15T05:48:36;24.80;41.60
49373;DHT22;44113;38.408;-122.974;2022-11-15T05:51:05;25.10;41.60
49373;DHT22;44113;38.408;-122.974;2022-11-15T05:53:33;25.70;41.20
49373;DHT22;44113;38.408;-122.974;2022-11-15T05:56:03;26.30;39.70
49373;DHT22;44113;38.408;-122.974;2022-11-15T05:58:32;26.90;39.20
49373;DHT22;44113;38.408;-122.974;2022-11-15T06:00:59;27.30;38.70
49373;DHT22;44113;38.408;-122.974;2022-11-15T06:03:27;27.50;38.40
49373;DHT22;44113;38.408;-122.974;2022-11-15T06:05:56;27.70;38.20
49373;DHT22;44113;38.408;-122.974;2022-11-15T06:08:22;27.90;38.10
49373;DHT22;44113;38.408;-122.974;2022-11-15T06:10:50;28.00;38.00
49373;DHT22;44113;38.408;-122.974;2022-11-15T06:13:16;28.10;38.00
49373;DHT22;44113;38.408;-122.974;2022-11-15T06:15:43;28.20;38.00
49373;DHT22;44113;38.408;-122.974;2022-11-15T06:18:10;28.30;38.00
49373;DHT22;44113;38.408;-122.974;2022-11-15T06:20:36;28.30;37.90
49373;DHT22;44113;38.408;-122.974;2022-11-15T06:23:04;28.40;38.00
49373;DHT22;44113;38.408;-122.974;2022-11-15T06:25:31;28.40;38.00
49373;DHT22;44113;38.408;-122.974;2022-11-15T06:27:58;28.40;38.10
49373;DHT22;44113;38.408;-122.974;2022-11-15T06:30:26;28.40;38.00
49373;DHT22;44113;38.408;-122.974;2022-11-15T06:33:02;28.40;38.00
49373;DHT22;44113;38.408;-122.974;2022-11-15T06:35:29;28.50;38.00
49373;DHT22;44113;38.408;-122.974;2022-11-15T06:38:05;28.60;38.00
49373;DHT22;44113;38.408;-122.974;2022-11-15T06:40:35;28.60;38.00
49373;DHT22;44113;38.408;-122.974;2022-11-15T06:43:03;28.60;38.00
49373;DHT22;44113;38.408;-122.974;2022-11-15T06:45:30;28.60;38.00
49373;DHT22;44113;38.408;-122.974;2022-11-15T06:47:57;28.70;38.00
49373;DHT22;44113;38.408;-122.974;2022-11-15T06:50:24;28.60;38.00
49373;DHT22;44113;38.408;-122.974;2022-11-15T06:52:51;28.60;38.00
49373;DHT22;44113;38.408;-122.974;2022-11-15T06:55:18;28.60;38.10
49373;DHT22;44113;38.408;-122.974;2022-11-15T06:57:52;28.60;38.10
49373;DHT22;44113;38.408;-122.974;2022-11-15T07:00:20;28.60;38.10
49373;DHT22;44113;38.408;-122.974;2022-11-15T07:02:48;28.60;38.10
49373;DHT22;44113;38.408;-122.974;2022-11-15T07:05:16;28.60;38.20
49373;DHT22;44113;38.408;-122.974;2022-11-15T07:07:43;28.50;38.20
49373;DHT22;44113;38.408;-122.974;2022-11-15T07:10:16;28.50;38.30
49373;DHT22;44113;38.408;-122.974;2022-11-15T07:12:47;28.50;38.30
49373;DHT22;44113;38.408;-122.974;2022-11-15T07:15:15;28.50;38.40
49373;DHT22;44113;38.408;-122.974;2022-11-15T07:17:43;28.50;38.40
49373;DHT22;44113;38.408;-122.974;2022-11-15T07:20:10;28.50;38.40
49373;DHT22;44113;38.408;-122.974;2022-11-15T07:22:37;28.50;38.50
49373;DHT22;44113;38.408;-122.974;2022-11-15T07:25:04;28.40;38.30
49373;DHT22;44113;38.408;-122.974;2022-11-15T07:27:30;28.50;38.50
49373;DHT22;44113;38.408;-122.974;2022-11-15T07:29:57;28.40;38.40
49373;DHT22;44113;38.408;-122.974;2022-11-15T07:32:23;28.40;38.40
49373;DHT22;44113;38.408;-122.974;2022-11-15T07:34:51;28.40;38.40
49373;DHT22;44113;38.408;-122.974;2022-11-15T07:37:17;28.40;38.40
49373;DHT22;44113;38.408;-122.974;2022-11-15T07:39:44;28.40;38.40
49373;DHT22;44113;38.408;-122.974;2022-11-15T07:42:10;28.40;38.40
49373;DHT22;44113;38.408;-122.974;2022-11-15T07:44:55;28.30;38.40
49373;DHT22;44113;38.408;-122.974;2022-11-15T07:47:22;28.30;38.40
49373;DHT22;44113;38.408;-122.974;2022-11-15T07:49:49;28.30;38.50
49373;DHT22;44113;38.408;-122.974;2022-11-15T07:52:17;28.20;38.50
49373;DHT22;44113;38.408;-122.974;2022-11-15T07:54:44;28.20;38.50
49373;DHT22;44113;38.408;-122.974;2022-11-15T07:57:11;28.20;38.50
49373;DHT22;44113;38.408;-122.974;2022-11-15T07:59:38;28.20;38.60
49373;DHT22;44113;38.408;-122.974;2022-11-15T08:02:05;28.10;38.60
49373;DHT22;44113;38.408;-122.974;2022-11-15T08:04:31;28.10;38.60
49373;DHT22;44113;38.408;-122.974;2022-11-15T08:06:58;28.10;38.70
49373;DHT22;44113;38.408;-122.974;2022-11-15T08:09:25;28.10;38.80
49373;DHT22;44113;38.408;-122.974;2022-11-15T08:11:51;28.00;38.80
49373;DHT22;44113;38.408;-122.974;2022-11-15T08:14:18;27.90;38.80
49373;DHT22;44113;38.408;-122.974;2022-11-15T08:16:47;27.90;38.90
49373;DHT22;44113;38.408;-122.974;2022-11-15T08:19:13;27.90;38.90
49373;DHT22;44113;38.408;-122.974;2022-11-15T08:21:41;27.90;39.00
49373;DHT22;44113;38.408;-122.974;2022-11-15T08:24:09;27.80;39.00
49373;DHT22;44113;38.408;-122.974;2022-11-15T08:26:37;27.80;39.00
49373;DHT22;44113;38.408;-122.974;2022-11-15T08:29:03;27.70;39.10
49373;DHT22;44113;38.408;-122.974;2022-11-15T08:31:30;27.70;39.10
49373;DHT22;44113;38.408;-122.974;2022-11-15T08:33:56;27.70;39.10
49373;DHT22;44113;38.408;-122.974;2022-11-15T08:36:24;27.70;39.20
49373;DHT22;44113;38.408;-122.974;2022-11-15T08:38:51;27.70;39.10
49373;DHT22;44113;38.408;-122.974;2022-11-15T08:41:38;27.70;39.10
49373;DHT22;44113;38.408;-122.974;2022-11-15T08:44:05;27.60;39.20
49373;DHT22;44113;38.408;-122.974;2022-11-15T08:46:31;27.60;39.40
49373;DHT22;44113;38.408;-122.974;2022-11-15T08:48:58;27.60;39.40
49373;DHT22;44113;38.408;-122.974;2022-11-15T08:51:24;27.60;39.30
49373;DHT22;44113;38.408;-122.974;2022-11-15T08:53:50;27.60;39.30
49373;DHT22;44113;38.408;-122.974;2022-11-15T08:56:17;27.60;39.30
49373;DHT22;44113;38.408;-122.974;2022-11-15T08:58:43;27.60;39.30
49373;DHT22;44113;38.408;-122.974;2022-11-15T09:01:18;27.50;39.20
49373;DHT22;44113;38.408;-122.974;2022-11-15T09:03:45;27.50;39.20
49373;DHT22;44113;38.408;-122.974;2022-11-15T09:06:11;27.50;39.30
49373;DHT22;44113;38.408;-122.974;2022-11-15T09:08:38;27.40;39.30
49373;DHT22;44113;38.408;-122.974;2022-11-15T09:11:05;27.40;39.40
49373;DHT22;44113;38.408;-122.974;2022-11-15T09:13:33;27.40;39.40
49373;DHT22;44113;38.408;-122.974;2022-11-15T09:16:00;27.40;39.40
49373;DHT22;44113;38.408;-122.974;2022-11-15T09:18:28;27.30;39.40
49373;DHT22;44113;38.408;-122.974;2022-11-15T09:20:58;27.30;39.50
49373;DHT22;44113;38.408;-122.974;2022-11-15T09:23:26;27.30;39.40
49373;DHT22;44113;38.408;-122.974;2022-11-15T09:25:57;27.30;39.50
49373;DHT22;44113;38.408;-122.974;2022-11-15T09:28:24;27.20;39.30
49373;DHT22;44113;38.408;-122.974;2022-11-15T09:30:50;27.20;39.50
49373;DHT22;44113;38.408;-122.974;2022-11-15T09:33:17;27.10;39.40
49373;DHT22;44113;38.408;-122.974;2022-11-15T09:35:44;27.10;39.50
49373;DHT22;44113;38.408;-122.974;2022-11-15T09:38:11;27.10;39.30
49373;DHT22;44113;38.408;-122.974;2022-11-15T09:40:38;27.00;39.50
49373;DHT22;44113;38.408;-122.974;2022-11-15T09:48:55;26.90;39.70
49373;DHT22;44113;38.408;-122.974;2022-11-15T09:51:30;26.90;39.60
49373;DHT22;44113;38.408;-122.974;2022-11-15T09:54:47;26.80;39.60
49373;DHT22;44113;38.408;-122.974;2022-11-15T09:57:14;26.80;39.60
49373;DHT22;44113;38.408;-122.974;2022-11-15T10:02:40;26.70;39.60
49373;DHT22;44113;38.408;-122.974;2022-11-15T10:05:16;26.70;39.70
49373;DHT22;44113;38.408;-122.974;2022-11-15T10:11:08;26.60;39.80
49373;DHT22;44113;38.408;-122.974;2022-11-15T10:13:39;26.60;39.80
49373;DHT22;44113;38.408;-122.974;2022-11-15T10:24:34;26.50;39.90
49373;DHT22;44113;38.408;-122.974;2022-11-15T10:27:12;26.40;39.80
49373;DHT22;44113;38.408;-122.974;2022-11-15T10:29:44;26.40;39.80
49373;DHT22;44113;38.408;-122.974;2022-11-15T10:32:14;26.40;39.80
49373;DHT22;44113;38.408;-122.974;2022-11-15T10:34:40;26.30;39.70
49373;DHT22;44113;38.408;-122.974;2022-11-15T10:37:07;26.30;39.80
49373;DHT22;44113;38.408;-122.974;2022-11-15T10:39:34;26.30;39.90
49373;DHT22;44113;38.408;-122.974;2022-11-15T10:42:22;26.20;39.80
49373;DHT22;44113;38.408;-122.974;2022-11-15T10:44:51;26.20;39.80
49373;DHT22;44113;38.408;-122.974;2022-11-15T10:47:35;26.20;39.90
49373;DHT22;44113;38.408;-122.974;2022-11-15T10:50:07;26.10;39.90
49373;DHT22;44113;38.408;-122.974;2022-11-15T10:52:35;26.10;39.90
49373;DHT22;44113;38.408;-122.974;2022-11-15T10:55:21;26.10;40.00
49373;DHT22;44113;38.408;-122.974;2022-11-15T10:57:54;26.00;39.90
49373;DHT22;44113;38.408;-122.974;2022-11-15T11:05:36;25.90;39.90
49373;DHT22;44113;38.408;-122.974;2022-11-15T11:08:24;25.90;40.00
49373;DHT22;44113;38.408;-122.974;2022-11-15T11:13:39;25.80;40.00
49373;DHT22;44113;38.408;-122.974;2022-11-15T11:16:44;25.70;39.90
49373;DHT22;44113;38.408;-122.974;2022-11-15T11:22:20;25.60;40.10
49373;DHT22;44113;38.408;-122.974;2022-11-15T11:25:22;25.60;40.10
49373;DHT22;44113;38.408;-122.974;2022-11-15T11:33:33;25.40;40.10
49373;DHT22;44113;38.408;-122.974;2022-11-15T11:36:39;25.40;39.80
49373;DHT22;44113;38.408;-122.974;2022-11-15T11:39:21;25.40;40.00
49373;DHT22;44113;38.408;-122.974;2022-11-15T11:47:12;25.20;40.10
49373;DHT22;44113;38.408;-122.974;2022-11-15T11:49:59;25.20;40.10
49373;DHT22;44113;38.408;-122.974;2022-11-15T11:52:41;25.10;40.10
49373;DHT22;44113;38.408;-122.974;2022-11-15T12:00:17;25.00;40.30
49373;DHT22;44113;38.408;-122.974;2022-11-15T12:05:46;25.00;40.20
49373;DHT22;44113;38.408;-122.974;2022-11-15T12:11:20;24.90;40.30
49373;DHT22;44113;38.408;-122.974;2022-11-15T12:13:51;24.80;40.40
49373;DHT22;44113;38.408;-122.974;2022-11-15T12:16:29;24.80;40.40
49373;DHT22;44113;38.408;-122.974;2022-11-15T12:19:00;24.80;40.50
49373;DHT22;44113;38.408;-122.974;2022-11-15T12:24:08;24.70;40.50
49373;DHT22;44113;38.408;-122.974;2022-11-15T12:26:49;24.60;40.60
49373;DHT22;44113;38.408;-122.974;2022-11-15T12:29:52;24.60;40.60
49373;DHT22;44113;38.408;-122.974;2022-11-15T12:34:47;24.60;40.40
49373;DHT22;44113;38.408;-122.974;2022-11-15T12:40:26;24.50;40.30
49373;DHT22;44113;38.408;-122.974;2022-11-15T12:45:43;24.40;40.70
49373;DHT22;44113;38.408;-122.974;2022-11-15T12:58:44;24.20;40.80
49373;DHT22;44113;38.408;-122.974;2022-11-15T13:04:28;24.00;40.90
49373;DHT22;44113;38.408;-122.974;2022-11-15T13:07:03;24.00;40.80
49373;DHT22;44113;38.408;-122.974;2022-11-15T13:12:03;24.00;41.00
49373;DHT22;44113;38.408;-122.974;2022-11-15T13:14:52;23.90;40.80
49373;DHT22;44113;38.408;-122.974;2022-11-15T13:22:48;23.80;40.90
49373;DHT22;44113;38.408;-122.974;2022-11-15T13:31:24;23.70;41.00
49373;DHT22;44113;38.408;-122.974;2022-11-15T13:33:53;23.70;41.00
49373;DHT22;44113;38.408;-122.974;2022-11-15T13:36:30;23.60;41.20
49373;DHT22;44113;38.408;-122.974;2022-11-15T13:39:05;23.60;41.10
49373;DHT22;44113;38.408;-122.974;2022-11-15T13:41:33;23.60;41.10
49373;DHT22;44113;38.408;-122.974;2022-11-15T13:44:02;23.50;41.10
49373;DHT22;44113;38.408;-122.974;2022-11-15T13:46:33;23.50;41.10
49373;DHT22;44113;38.408;-122.974;2022-11-15T13:49:05;23.50;41.10
49373;DHT22;44113;38.408;-122.974;2022-11-15T13:51:49;23.50;41.10
49373;DHT22;44113;38.408;-122.974;2022-11-15T13:54:20;23.40;41.40
49373;DHT22;44113;38.408;-122.974;2022-11-15T13:56:55;23.40;41.20
49373;DHT22;44113;38.408;-122.974;2022-11-15T13:59:34;23.40;41.40
49373;DHT22;44113;38.408;-122.974;2022-11-15T14:02:13;23.30;41.20
49373;DHT22;44113;38.408;-122.974;2022-11-15T14:04:58;23.30;41.60
49373;DHT22;44113;38.408;-122.974;2022-11-15T14:07:27;23.10;41.70
49373;DHT22;44113;38.408;-122.974;2022-11-15T14:09:54;23.20;41.60
49373;DHT22;44113;38.408;-122.974;2022-11-15T14:12:31;23.20;41.50
49373;DHT22;44113;38.408;-122.974;2022-11-15T14:15:01;23.10;41.50
49373;DHT22;44113;38.408;-122.974;2022-11-15T14:19:57;23.10;41.60
49373;DHT22;44113;38.408;-122.974;2022-11-15T14:22:25;23.00;41.50
49373;DHT22;44113;38.408;-122.974;2022-11-15T14:27:40;23.00;41.70
49373;DHT22;44113;38.408;-122.974;2022-11-15T14:30:16;23.00;41.70
49373;DHT22;44113;38.408;-122.974;2022-11-15T14:32:48;22.90;41.70
49373;DHT22;44113;38.408;-122.974;2022-11-15T14:35:21;22.90;41.90
49373;DHT22;44113;38.408;-122.974;2022-11-15T14:37:48;22.80;41.70
49373;DHT22;44113;38.408;-122.974;2022-11-15T14:40:21;22.80;42.00
49373;DHT22;44113;38.408;-122.974;2022-11-15T14:42:49;22.80;41.90
49373;DHT22;44113;38.408;-122.974;2022-11-15T14:45:20;22.70;41.80
49373;DHT22;44113;38.408;-122.974;2022-11-15T14:47:48;22.70;42.20
49373;DHT22;44113;38.408;-122.974;2022-11-15T14:50:20;22.70;42.20
49373;DHT22;44113;38.408;-122.974;2022-11-15T14:52:48;22.60;42.00
49373;DHT22;44113;38.408;-122.974;2022-11-15T14:57:47;22.50;42.20
49373;DHT22;44113;38.408;-122.974;2022-11-15T15:00:15;22.50;42.10
49373;DHT22;44113;38.408;-122.974;2022-11-15T15:02:43;22.50;42.40
49373;DHT22;44113;38.408;-122.974;2022-11-15T15:05:20;22.50;42.40
49373;DHT22;44113;38.408;-122.974;2022-11-15T15:07:48;22.40;42.30
49373;DHT22;44113;38.408;-122.974;2022-11-15T15:10:15;22.40;42.40
49373;DHT22;44113;38.408;-122.974;2022-11-15T15:12:42;22.40;42.30
49373;DHT22;44113;38.408;-122.974;2022-11-15T15:15:35;22.40;42.30
49373;DHT22;44113;38.408;-122.974;2022-11-15T15:18:00;22.30;42.40
49373;DHT22;44113;38.408;-122.974;2022-11-15T15:20:27;22.30;42.60
49373;DHT22;44113;38.408;-122.974;2022-11-15T15:22:56;22.20;42.50
49373;DHT22;44113;38.408;-122.974;2022-11-15T15:25:30;22.20;42.60
49373;DHT22;44113;38.408;-122.974;2022-11-15T15:27:58;22.20;42.50
49373;DHT22;44113;38.408;-122.974;2022-11-15T15:30:27;22.20;42.70
49373;DHT22;44113;38.408;-122.974;2022-11-15T15:32:55;22.10;42.70
49373;DHT22;44113;38.408;-122.974;2022-11-15T15:35:22;22.10;42.70
49373;DHT22;44113;38.408;-122.974;2022-11-15T15:37:50;22.10;42.90
49373;DHT22;44113;38.408;-122.974;2022-11-15T15:40:21;22.00;42.80
49373;DHT22;44113;38.408;-122.974;2022-11-15T15:42:49;22.10;42.80
49373;DHT22;44113;38.408;-122.974;2022-11-15T15:45:16;22.00;42.70
49373;DHT22;44113;38.408;-122.974;2022-11-15T15:47:44;22.00;42.80
49373;DHT22;44113;38.408;-122.974;2022-11-15T15:50:27;22.00;42.80
49373;DHT22;44113;38.408;-122.974;2022-11-15T15:52:56;22.00;42.80
49373;DHT22;44113;38.408;-122.974;2022-11-15T15:55:23;21.90;43.10
49373;DHT22;44113;38.408;-122.974;2022-11-15T15:57:50;21.90;43.50
49373;DHT22;44113;38.408;-122.974;2022-11-15T16:00:18;21.90;43.00
49373;DHT22;44113;38.408;-122.974;2022-11-15T16:02:45;21.90;42.90
49373;DHT22;44113;38.408;-122.974;2022-11-15T16:05:12;21.90;43.00
49373;DHT22;44113;38.408;-122.974;2022-11-15T16:07:39;21.80;43.10
49373;DHT22;44113;38.408;-122.974;2022-11-15T16:10:29;21.80;43.20
49373;DHT22;44113;38.408;-122.974;2022-11-15T16:12:56;21.70;43.00
49373;DHT22;44113;38.408;-122.974;2022-11-15T16:15:29;21.70;44.20
49373;DHT22;44113;38.408;-122.974;2022-11-15T16:17:57;21.70;43.80
49373;DHT22;44113;38.408;-122.974;2022-11-15T16:22:56;21.60;43.30
49373;DHT22;44113;38.408;-122.974;2022-11-15T16:25:23;21.60;43.60
49373;DHT22;44113;38.408;-122.974;2022-11-15T16:27:49;21.60;43.80
49373;DHT22;44113;38.408;-122.974;2022-11-15T16:30:18;21.50;43.80
49373;DHT22;44113;38.408;-122.974;2022-11-15T16:32:45;21.50;43.70
49373;DHT22;44113;38.408;-122.974;2022-11-15T16:35:12;21.50;43.80
49373;DHT22;44113;38.408;-122.974;2022-11-15T16:37:39;21.50;43.70
49373;DHT22;44113;38.408;-122.974;2022-11-15T16:42:50;21.40;43.90
49373;DHT22;44113;38.408;-122.974;2022-11-15T16:45:17;21.40;44.00
49373;DHT22;44113;38.408;-122.974;2022-11-15T16:47:43;21.40;44.00
49373;DHT22;44113;38.408;-122.974;2022-11-15T16:50:24;21.30;44.20
49373;DHT22;44113;38.408;-122.974;2022-11-15T16:52:55;21.30;44.30
49373;DHT22;44113;38.408;-122.974;2022-11-15T16:55:24;21.30;44.60
49373;DHT22;44113;38.408;-122.974;2022-11-15T16:57:51;21.30;44.40
49373;DHT22;44113;38.408;-122.974;2022-11-15T17:00:19;21.30;44.80
49373;DHT22;44113;38.408;-122.974;2022-11-15T17:02:47;21.20;44.70
49373;DHT22;44113;38.408;-122.974;2022-11-15T17:05:17;21.20;44.80
49373;DHT22;44113;38.408;-122.974;2022-11-15T17:07:46;21.20;44.90
49373;DHT22;44113;38.408;-122.974;2022-11-15T17:10:20;21.20;45.20
49373;DHT22;44113;38.408;-122.974;2022-11-15T17:12:46;21.20;45.20
49373;DHT22;44113;38.408;-122.974;2022-11-15T17:15:14;21.20;45.20
49373;DHT22;44113;38.408;-122.974;2022-11-15T17:17:41;21.10;45.30
49373;DHT22;44113;38.408;-122.974;2022-11-15T17:20:13;21.10;45.10
49373;DHT22;44113;38.408;-122.974;2022-11-15T17:22:40;21.10;45.10
49373;DHT22;44113;38.408;-122.974;2022-11-15T17:25:07;21.10;45.20
49373;DHT22;44113;38.408;-122.974;2022-11-15T17:27:34;21.10;45.30
49373;DHT22;44113;38.408;-122.974;2022-11-15T17:30:02;21.10;45.40